createdAt,value
2022-10-10T00:01:00.694Z,6.51
2022-10-10T00:05:02.129Z,6.48
2022-10-10T00:09:04.769Z,6.43
2022-10-10T00:13:06.204Z,6.42
2022-10-10T00:17:07.472Z,6.29
2022-10-10T00:21:08.973Z,6.30
2022-10-10T00:25:11.370Z,6.31
2022-10-10T00:29:12.698Z,6.35
2022-10-10T00:33:14.319Z,6.30
2022-10-10T00:37:15.729Z,6.23
2022-10-10T00:41:17.521Z,6.18
2022-10-10T00:45:28.057Z,6.16
2022-10-10T00:49:29.724Z,6.06
2022-10-10T00:53:34.405Z,5.96
2022-10-10T00:57:35.836Z,5.90
2022-10-10T01:01:37.517Z,5.89
2022-10-10T01:05:40.149Z,5.83
2022-10-10T01:09:43.217Z,5.79
2022-10-10T01:13:59.492Z,5.79
2022-10-10T01:18:06.753Z,5.79
2022-10-10T01:22:14.103Z,5.75
2022-10-10T01:26:30.797Z,5.72
2022-10-10T01:30:34.486Z,5.64
2022-10-10T01:35:11.163Z,5.61
2022-10-10T01:39:23.231Z,5.58
2022-10-10T01:43:26.311Z,5.57
2022-10-10T01:47:27.942Z,5.50
2022-10-10T01:51:38.185Z,5.43
2022-10-10T01:55:42.528Z,5.42
2022-10-10T01:59:46.856Z,5.40
2022-10-10T02:03:53.233Z,5.37
2022-10-10T02:08:03.417Z,5.32
2022-10-10T02:12:06.440Z,5.31
2022-10-10T02:16:11.868Z,5.29
2022-10-10T02:20:15.104Z,5.30
2022-10-10T02:24:16.681Z,5.27
2022-10-10T02:28:18.036Z,5.22
2022-10-10T02:32:19.286Z,5.19
2022-10-10T02:36:22.248Z,5.19
2022-10-10T02:40:25.761Z,5.18
2022-10-10T02:44:27.421Z,5.19
2022-10-10T02:48:28.775Z,5.18
2022-10-10T02:52:30.189Z,5.09
2022-10-10T02:56:31.536Z,5.07
2022-10-10T03:00:32.851Z,5.06
2022-10-10T03:04:35.198Z,5.05
2022-10-10T03:08:39.600Z,5.09
2022-10-10T03:12:40.845Z,5.09
2022-10-10T03:16:44.001Z,5.09
2022-10-10T03:20:45.984Z,5.09
2022-10-10T03:24:47.228Z,5.06
2022-10-10T03:28:48.481Z,5.07
2022-10-10T03:32:50.170Z,5.01
2022-10-10T03:36:52.165Z,4.96
2022-10-10T03:40:53.656Z,4.95
2022-10-10T03:44:54.945Z,4.96
2022-10-10T03:48:56.299Z,4.95
2022-10-10T03:52:57.537Z,4.85
2022-10-10T03:56:58.824Z,4.82
2022-10-10T04:01:01.853Z,4.80
2022-10-10T04:05:04.995Z,4.77
2022-10-10T04:09:06.370Z,4.78
2022-10-10T04:13:07.940Z,4.79
2022-10-10T04:17:09.192Z,4.79
2022-10-10T04:21:11.416Z,4.77
2022-10-10T04:25:12.683Z,4.78
2022-10-10T04:29:14.312Z,4.78
2022-10-10T04:33:15.642Z,4.75
2022-10-10T04:37:16.920Z,4.72
2022-10-10T04:41:18.245Z,4.67
2022-10-10T04:45:19.593Z,4.64
2022-10-10T04:49:20.883Z,4.63
2022-10-10T04:53:22.285Z,4.61
2022-10-10T04:57:23.581Z,4.58
2022-10-10T05:01:25.047Z,4.50
2022-10-10T05:05:26.448Z,4.50
2022-10-10T05:09:27.716Z,4.51
2022-10-10T05:13:29.013Z,4.50
2022-10-10T05:17:30.348Z,4.45
2022-10-10T05:21:31.625Z,4.43
2022-10-10T05:25:32.953Z,4.42
2022-10-10T05:29:34.227Z,4.42
2022-10-10T05:33:35.546Z,4.38
2022-10-10T05:37:36.960Z,4.40
2022-10-10T05:41:38.816Z,4.33
2022-10-10T05:45:40.244Z,4.33
2022-10-10T05:49:41.542Z,4.34
2022-10-10T05:53:43.021Z,4.32
2022-10-10T05:57:44.325Z,4.30
2022-10-10T06:01:45.604Z,4.30
2022-10-10T06:05:50.291Z,4.24
2022-10-10T06:09:51.538Z,4.27
2022-10-10T06:13:54.505Z,4.33
2022-10-10T06:17:55.824Z,4.42
2022-10-10T06:21:57.144Z,4.49
2022-10-10T06:25:58.401Z,4.52
2022-10-10T06:30:00.330Z,4.65
2022-10-10T06:34:01.592Z,4.76
2022-10-10T06:38:02.893Z,4.91
2022-10-10T06:42:04.281Z,5.07
2022-10-10T06:46:05.740Z,5.23
2022-10-10T06:50:07.127Z,5.39
2022-10-10T06:54:08.453Z,5.54
2022-10-10T06:58:09.724Z,5.69
2022-10-10T07:02:13.926Z,5.86
2022-10-10T07:06:16.014Z,6.16
2022-10-10T07:10:17.376Z,6.48
2022-10-10T07:14:18.648Z,6.85
2022-10-10T07:18:20.782Z,7.20
2022-10-10T07:22:22.020Z,7.58
2022-10-10T07:26:26.839Z,7.98
2022-10-10T07:30:28.087Z,8.36
2022-10-10T07:34:29.378Z,8.74
2022-10-10T07:38:30.717Z,9.01
2022-10-10T07:42:31.987Z,9.27
2022-10-10T07:46:33.345Z,9.65
2022-10-10T07:50:34.693Z,10.00
2022-10-10T07:54:35.944Z,10.44
2022-10-10T07:58:37.218Z,10.75
2022-10-10T08:02:38.662Z,11.04
2022-10-10T08:06:40.097Z,11.41
2022-10-10T08:10:44.940Z,11.78
2022-10-10T08:14:46.451Z,12.21
2022-10-10T08:18:47.792Z,12.54
2022-10-10T08:22:49.537Z,12.91
2022-10-10T08:26:51.192Z,13.29
2022-10-10T08:30:52.552Z,13.63
2022-10-10T08:34:53.869Z,13.88
2022-10-10T08:38:59.589Z,14.14
2022-10-10T08:43:03.963Z,14.35
2022-10-10T08:47:07.319Z,14.45
2022-10-10T08:51:13.001Z,14.54
2022-10-10T08:55:19.424Z,14.85
2022-10-10T08:59:23.191Z,15.26
2022-10-10T09:03:24.592Z,15.43
2022-10-10T09:07:34.101Z,15.76
2022-10-10T09:11:40.443Z,16.11
2022-10-10T09:15:45.625Z,16.38
2022-10-10T09:20:05.734Z,16.28
2022-10-10T09:24:07.032Z,16.52
2022-10-10T09:28:15.548Z,16.74
2022-10-10T09:32:24.187Z,16.91
2022-10-10T09:36:28.765Z,17.07
2022-10-10T09:40:34.345Z,17.27
2022-10-10T09:44:35.877Z,17.50
2022-10-10T09:48:38.542Z,17.75
2022-10-10T09:52:39.961Z,17.88
2022-10-10T09:56:53.405Z,17.97
2022-10-10T10:00:54.953Z,18.07
2022-10-10T10:04:56.376Z,18.16
2022-10-10T10:09:00.634Z,18.31
2022-10-10T10:13:01.925Z,18.39
2022-10-10T10:17:11.220Z,18.49
2022-10-10T10:21:17.284Z,18.59
2022-10-10T10:25:32.361Z,18.76
2022-10-10T10:29:33.909Z,18.99
2022-10-10T10:34:10.789Z,19.02
2022-10-10T10:38:30.141Z,19.12
2022-10-10T10:42:50.394Z,19.13
2022-10-10T10:47:09.836Z,19.23
2022-10-10T10:51:17.791Z,19.35
2022-10-10T10:55:41.965Z,19.51
2022-10-10T11:00:26.521Z,19.64
2022-10-10T11:05:17.385Z,19.63
2022-10-10T11:09:02.960Z,19.79
2022-10-10T11:13:10.345Z,19.94
2022-10-10T11:17:12.774Z,20.05
2022-10-10T11:21:34.145Z,20.07
2022-10-10T11:25:45.062Z,20.15
2022-10-10T11:29:51.173Z,20.21
2022-10-10T11:34:28.085Z,20.34
2022-10-10T11:38:29.401Z,20.43
2022-10-10T11:42:37.544Z,20.56
2022-10-10T11:46:57.347Z,20.55
2022-10-10T11:51:04.130Z,20.45
2022-10-10T11:55:08.348Z,20.58
2022-10-10T11:59:31.496Z,20.74
2022-10-10T12:03:32.896Z,20.91
2022-10-10T12:08:01.131Z,21.02
2022-10-10T12:12:04.444Z,21.21
2022-10-10T12:16:10.808Z,21.27
2022-10-10T12:20:15.102Z,21.29
2022-10-10T12:24:16.405Z,21.26
2022-10-10T12:28:18.412Z,21.27
2022-10-10T12:32:22.893Z,21.33
2022-10-10T12:36:24.113Z,21.41
2022-10-10T12:40:25.805Z,21.45
2022-10-10T12:44:45.945Z,21.46
2022-10-10T12:48:57.056Z,21.36
2022-10-10T12:53:00.156Z,21.28
2022-10-10T12:57:14.174Z,21.27
2022-10-10T13:01:24.448Z,21.30
2022-10-10T13:05:27.803Z,21.25
2022-10-10T13:09:35.429Z,21.16
2022-10-10T13:13:38.021Z,21.28
2022-10-10T13:17:41.210Z,21.30
2022-10-10T13:21:42.585Z,21.30
2022-10-10T13:25:45.452Z,21.32
2022-10-10T13:29:46.964Z,21.36
2022-10-10T13:33:48.886Z,21.35
2022-10-10T13:37:54.956Z,21.21
2022-10-10T13:41:56.729Z,20.97
2022-10-10T13:45:59.850Z,20.87
2022-10-10T13:50:01.167Z,20.89
2022-10-10T13:54:02.571Z,20.85
2022-10-10T13:58:06.341Z,20.76
2022-10-10T14:02:13.519Z,20.62
2022-10-10T14:06:19.424Z,20.41
2022-10-10T14:10:25.453Z,20.26
2022-10-10T14:14:32.656Z,20.29
2022-10-10T14:18:34.056Z,20.28
2022-10-10T14:22:35.333Z,20.30
2022-10-10T14:26:36.997Z,20.25
2022-10-10T14:30:38.251Z,20.22
2022-10-10T14:34:39.796Z,20.22
2022-10-10T14:38:41.104Z,20.20
2022-10-10T14:42:42.450Z,20.17
2022-10-10T14:46:43.735Z,20.12
2022-10-10T14:50:47.040Z,20.06
2022-10-10T14:54:48.335Z,20.10
2022-10-10T14:58:50.476Z,20.19
2022-10-10T15:02:51.814Z,20.22
2022-10-10T15:07:12.449Z,20.19
2022-10-10T15:11:15.713Z,20.11
2022-10-10T15:15:17.126Z,19.98
2022-10-10T15:19:18.349Z,19.90
2022-10-10T15:23:19.717Z,19.84
2022-10-10T15:27:20.982Z,19.71
2022-10-10T15:31:30.216Z,19.59
2022-10-10T15:35:50.257Z,19.42
2022-10-10T15:39:52.916Z,19.31
2022-10-10T15:43:54.649Z,19.20
2022-10-10T15:47:56.320Z,19.08
2022-10-10T15:51:57.554Z,18.99
2022-10-10T15:55:58.976Z,18.82
2022-10-10T16:00:00.305Z,18.64
2022-10-10T16:04:02.755Z,18.47
2022-10-10T16:08:04.531Z,18.35
2022-10-10T16:12:07.202Z,18.22
2022-10-10T16:16:10.145Z,18.07
2022-10-10T16:20:11.666Z,17.92
2022-10-10T16:24:13.018Z,17.84
2022-10-10T16:28:14.402Z,17.70
2022-10-10T16:32:15.736Z,17.54
2022-10-10T16:36:21.893Z,17.44
2022-10-10T16:40:23.188Z,17.32
2022-10-10T16:44:24.996Z,17.19
2022-10-10T16:48:26.225Z,17.06
2022-10-10T16:52:27.553Z,16.95
2022-10-10T16:56:29.788Z,16.86
2022-10-10T17:00:31.479Z,16.82
2022-10-10T17:04:32.882Z,16.69
2022-10-10T17:08:34.144Z,16.61
2022-10-10T17:12:35.361Z,16.56
2022-10-10T17:20:58.201Z,16.45
2022-10-10T17:24:59.504Z,16.41
2022-10-10T17:29:00.776Z,16.43
2022-10-10T17:33:02.132Z,16.54
2022-10-10T17:37:03.892Z,16.58
2022-10-10T17:41:06.135Z,16.67
2022-10-10T17:45:07.889Z,16.69
2022-10-10T17:49:09.907Z,16.60
2022-10-10T17:53:11.167Z,16.53
2022-10-10T17:57:12.462Z,16.41
2022-10-10T18:01:18.119Z,16.27
2022-10-10T18:05:19.444Z,16.16
2022-10-10T18:09:20.718Z,16.00
2022-10-10T18:13:22.321Z,15.83
2022-10-10T18:17:23.573Z,15.66
2022-10-10T18:21:25.054Z,15.57
2022-10-10T18:25:27.292Z,15.53
2022-10-10T18:29:28.565Z,15.52
2022-10-10T18:33:30.141Z,15.49
2022-10-10T18:37:31.437Z,15.37
2022-10-10T18:41:34.362Z,15.20
2022-10-10T18:45:36.018Z,15.11
2022-10-10T18:49:37.393Z,14.96
2022-10-10T18:53:39.979Z,14.85
2022-10-10T18:57:41.213Z,14.75
2022-10-10T19:01:45.804Z,14.64
2022-10-10T19:05:47.206Z,14.53
2022-10-10T19:09:48.560Z,14.41
2022-10-10T19:13:50.441Z,14.37
2022-10-10T19:17:51.720Z,14.31
2022-10-10T19:21:53.043Z,14.23
2022-10-10T19:25:54.641Z,14.14
2022-10-10T19:29:55.984Z,14.04
2022-10-10T19:33:58.364Z,13.95
2022-10-10T19:37:59.613Z,13.87
2022-10-10T19:42:01.012Z,13.83
2022-10-10T19:46:06.700Z,13.77
2022-10-10T19:50:08.525Z,13.72
2022-10-10T19:54:10.369Z,13.68
2022-10-10T19:58:11.716Z,13.64
2022-10-10T20:02:13.057Z,13.59
2022-10-10T20:06:15.413Z,13.57
2022-10-10T20:10:17.431Z,13.56
2022-10-10T20:14:19.140Z,13.59
2022-10-10T20:18:21.464Z,13.66
2022-10-10T20:22:22.837Z,13.73
2022-10-10T20:26:26.646Z,13.85
2022-10-10T20:30:28.183Z,13.87
2022-10-10T20:34:29.455Z,13.91
2022-10-10T20:38:30.748Z,13.95
2022-10-10T20:42:32.125Z,14.04
2022-10-10T20:46:38.038Z,14.14
2022-10-10T20:50:39.328Z,14.24
2022-10-10T20:54:40.880Z,14.27
2022-10-10T20:58:42.136Z,14.26
2022-10-10T21:02:43.701Z,14.23
2022-10-10T21:06:45.191Z,14.28
2022-10-10T21:10:47.132Z,14.25
2022-10-10T21:14:48.432Z,14.27
2022-10-10T21:18:57.647Z,14.27
2022-10-10T21:22:59.709Z,14.26
2022-10-10T21:27:01.044Z,14.28
2022-10-10T21:31:02.781Z,14.30
2022-10-10T21:35:04.854Z,14.32
2022-10-10T21:39:06.895Z,14.31
2022-10-10T21:43:08.292Z,14.30
2022-10-10T21:47:09.521Z,14.31
2022-10-10T21:51:11.433Z,14.30
2022-10-10T21:55:12.656Z,14.29
2022-10-10T21:59:13.958Z,14.29
2022-10-10T22:03:15.565Z,14.29
2022-10-10T22:07:16.985Z,14.31
2022-10-10T22:11:19.949Z,14.30
2022-10-10T22:15:21.555Z,14.29
2022-10-10T22:19:22.918Z,14.29
2022-10-10T22:23:24.788Z,14.29
2022-10-10T22:27:26.040Z,14.29
2022-10-10T22:31:27.339Z,14.30
2022-10-10T22:35:28.632Z,14.29
2022-10-10T22:39:30.055Z,14.28
2022-10-10T22:43:31.320Z,14.27
2022-10-10T22:47:33.001Z,14.25
2022-10-10T22:51:34.412Z,14.24
2022-10-10T22:55:35.933Z,14.22
2022-10-10T22:59:37.837Z,14.23
2022-10-10T23:03:39.213Z,14.23
2022-10-10T23:07:40.461Z,14.27
2022-10-10T23:11:41.750Z,14.39
2022-10-10T23:15:43.001Z,14.41
2022-10-10T23:19:44.300Z,14.46
2022-10-10T23:23:45.709Z,14.53
2022-10-10T23:27:47.024Z,14.57
2022-10-10T23:31:48.276Z,14.56
2022-10-10T23:35:56.766Z,14.54
2022-10-10T23:39:58.168Z,14.50
2022-10-10T23:43:59.549Z,14.46
2022-10-10T23:48:00.806Z,14.38
2022-10-10T23:52:02.145Z,14.30
2022-10-10T23:56:03.895Z,14.26
